Time;durP1;ratioP1;P1;durP2;ratioP2;P2;SDS_P1;SDS_P2;PMS_P1;PMS_P2;Temp;Humidity;BMP_temperature;BMP_pressure;BME280_temperature;BME280_humidity;BME280_pressure;Samples;Min_cycle;Max_cycle;Signal;HPM_P1;HPM_P2
2023/08/13 00:00:06;;;;;;;3.80;2.17;;;;;;;17.80;100.00;98311.53;5138219;28;20411;-62
2023/08/13 00:02:32;;;;;;;3.13;1.75;;;;;;;17.78;100.00;98320.25;5138084;28;20131;-60
2023/08/13 00:04:58;;;;;;;3.40;1.85;;;;;;;17.82;100.00;98336.81;5137914;28;20110;-60
2023/08/13 00:07:24;;;;;;;2.63;1.70;;;;;;;17.78;100.00;98317.47;5137816;27;20047;-61
2023/08/13 00:09:50;;;;;;;1.42;1.23;;;;;;;17.64;100.00;98315.03;5138220;28;20061;-61
2023/08/13 00:12:16;;;;;;;3.53;1.98;;;;;;;17.77;100.00;98326.25;5137692;28;20400;-61
2023/08/13 00:14:42;;;;;;;3.85;2.15;;;;;;;17.50;100.00;98316.16;5138279;28;20142;-62
2023/08/13 00:17:08;;;;;;;2.13;1.80;;;;;;;17.65;100.00;98311.03;5137702;28;20051;-62
2023/08/13 00:19:34;;;;;;;4.20;1.77;;;;;;;17.73;100.00;98328.31;5138017;28;20374;-62
2023/08/13 00:22:00;;;;;;;5.47;1.90;;;;;;;17.76;100.00;98332.94;5137624;28;20103;-62
2023/08/13 00:24:26;;;;;;;2.38;1.63;;;;;;;17.45;100.00;98316.66;5138002;28;20086;-62
2023/08/13 00:26:52;;;;;;;4.38;2.13;;;;;;;17.73;100.00;98314.44;5137825;28;20195;-62
2023/08/13 00:29:18;;;;;;;3.35;1.60;;;;;;;17.80;100.00;98342.00;5137683;28;20051;-61
2023/08/13 00:31:44;;;;;;;2.50;1.65;;;;;;;17.56;100.00;98308.09;5137754;28;20133;-60
2023/08/13 00:34:10;;;;;;;5.32;2.00;;;;;;;17.55;100.00;98287.16;5137348;28;20412;-60
2023/08/13 00:36:36;;;;;;;7.50;1.50;;;;;;;17.53;100.00;98309.75;5137730;28;20108;-60
2023/08/13 00:39:03;;;;;;;4.50;1.70;;;;;;;17.42;100.00;98285.06;5137329;27;20051;-62
2023/08/13 00:41:29;;;;;;;7.22;1.83;;;;;;;17.62;100.00;98295.28;5137741;28;20079;-62
2023/08/13 00:43:55;;;;;;;6.50;1.80;;;;;;;17.53;100.00;98284.03;5137320;28;20141;-63
2023/08/13 00:46:21;;;;;;;2.95;1.65;;;;;;;17.66;100.00;98298.78;5137660;28;20097;-62
2023/08/13 00:48:54;;;;;;;3.65;1.67;;;;;;;17.77;100.00;98296.53;5137191;28;20057;-60
2023/08/13 00:51:22;;;;;;;5.45;1.83;;;;;;;17.59;100.00;98274.78;5137674;28;20043;-62
2023/08/13 00:53:48;;;;;;;6.45;1.70;;;;;;;17.77;100.00;98295.75;5137121;28;20141;-60
2023/08/13 00:56:15;;;;;;;3.20;1.70;;;;;;;17.67;100.00;98291.22;5137033;28;20047;-61
2023/08/13 00:58:42;;;;;;;3.50;2.03;;;;;;;17.65;100.00;98281.34;5137412;28;20061;-62
2023/08/13 01:01:08;;;;;;;9.18;1.45;;;;;;;17.65;100.00;98283.31;5137216;28;20336;-61
2023/08/13 01:03:36;;;;;;;3.78;1.70;;;;;;;17.59;100.00;98260.13;5137327;28;20051;-61
2023/08/13 01:06:10;;;;;;;6.40;1.90;;;;;;;17.62;100.00;98271.13;5136927;28;20055;-62
2023/08/13 01:08:43;;;;;;;9.88;1.55;;;;;;;17.56;100.00;98269.28;5137573;27;20320;-60
2023/08/13 01:11:19;;;;;;;1.45;1.35;;;;;;;17.58;100.00;98264.09;5136889;28;20204;-63
2023/08/13 01:13:53;;;;;;;2.42;1.60;;;;;;;17.56;100.00;98269.28;5137384;28;20196;-62
2023/08/13 01:16:21;;;;;;;7.65;1.90;;;;;;;17.49;100.00;98248.09;5136829;28;20047;-61
2023/08/13 01:18:47;;;;;;;6.18;2.20;;;;;;;17.65;100.00;98261.16;5137027;27;20083;-61
2023/08/13 01:21:13;;;;;;;6.60;1.80;;;;;;;17.57;100.00;98254.25;5140748;28;20055;-61
2023/08/13 01:23:40;;;;;;;3.17;1.58;;;;;;;17.73;100.00;98264.56;5140598;28;20154;-61
2023/08/13 01:26:13;;;;;;;7.60;1.65;;;;;;;17.61;100.00;98243.84;5140705;28;20047;-61
2023/08/13 01:28:44;;;;;;;1.75;1.20;;;;;;;17.37;100.00;98248.78;5140309;28;20435;-62
2023/08/13 01:31:12;;;;;;;4.22;1.80;;;;;;;17.54;100.00;98244.81;5140761;28;20047;-61
2023/08/13 01:33:41;;;;;;;4.68;1.80;;;;;;;17.61;100.00;98232.75;5140257;28;20051;-60
2023/08/13 01:36:09;;;;;;;6.72;2.00;;;;;;;17.60;100.00;98236.75;5140714;28;20359;-62
2023/08/13 01:38:35;;;;;;;10.68;1.67;;;;;;;17.62;100.00;98248.94;5140189;27;20075;-62
2023/08/13 01:41:03;;;;;;;3.40;1.63;;;;;;;17.56;100.00;98242.38;5140652;28;20063;-62
2023/08/13 01:43:29;;;;;;;5.53;2.05;;;;;;;17.59;100.00;98229.63;5140112;28;20053;-63
2023/08/13 01:45:55;;;;;;;3.67;1.45;;;;;;;17.58;100.00;98208.69;5140359;28;20055;-60
2023/08/13 01:48:21;;;;;;;8.45;2.10;;;;;;;17.57;100.00;98196.06;5140362;28;20051;-60
2023/08/13 01:50:47;;;;;;;2.90;1.42;;;;;;;17.42;100.00;98198.38;5139977;28;20374;-62
2023/08/13 01:53:13;;;;;;;2.15;1.80;;;;;;;17.36;100.00;98175.19;5140170;28;20135;-63
2023/08/13 01:55:39;;;;;;;6.22;1.60;;;;;;;17.37;100.00;98185.06;5140024;28;20055;-62
2023/08/13 01:58:05;;;;;;;2.85;1.40;;;;;;;17.33;100.00;98199.03;5140328;28;20126;-59
2023/08/13 02:00:31;;;;;;;6.57;2.10;;;;;;;17.46;100.00;98201.06;5139781;28;20432;-63
2023/08/13 02:02:57;;;;;;;3.88;1.60;;;;;;;17.30;100.00;98196.34;5140245;28;20456;-60
2023/08/13 02:05:23;;;;;;;2.88;1.40;;;;;;;17.41;100.00;98192.06;5139728;28;20062;-61
2023/08/13 02:07:49;;;;;;;4.90;1.30;;;;;;;17.39;100.00;98158.50;5140140;27;20069;-60
2023/08/13 02:10:15;;;;;;;4.15;1.80;;;;;;;17.41;100.00;98147.75;5139578;28;20442;-60
2023/08/13 02:12:41;;;;;;;3.72;1.70;;;;;;;17.43;100.00;98144.56;5139861;28;20126;-62
2023/08/13 02:15:08;;;;;;;8.70;2.08;;;;;;;17.47;100.00;98144.47;5140066;28;20474;-62
2023/08/13 02:17:34;;;;;;;4.05;1.65;;;;;;;17.37;100.00;98160.16;5139737;28;20115;-61
2023/08/13 02:20:00;;;;;;;1.77;1.40;;;;;;;17.30;100.00;98174.19;5139665;28;20047;-63
2023/08/13 02:22:26;;;;;;;3.63;1.65;;;;;;;17.28;100.00;98157.97;5139451;28;20051;-62
2023/08/13 02:24:52;;;;;;;9.00;1.50;;;;;;;17.10;100.00;98157.66;5139629;28;20107;-61
2023/08/13 02:27:18;;;;;;;4.95;1.63;;;;;;;17.06;100.00;98134.78;5139558;28;20047;-61
2023/08/13 02:29:44;;;;;;;7.60;1.83;;;;;;;17.11;100.00;98137.81;5139771;28;20112;-60
2023/08/13 02:32:10;;;;;;;9.18;2.63;;;;;;;17.03;100.00;98138.47;5138251;27;20051;-60
2023/08/13 02:34:43;;;;;;;4.00;1.60;;;;;;;17.03;100.00;98139.22;5139868;28;20310;-60
2023/08/13 02:37:09;;;;;;;2.55;1.75;;;;;;;16.90;100.00;98125.28;5139196;27;20141;-62
2023/08/13 02:39:35;;;;;;;6.10;2.25;;;;;;;16.96;100.00;98127.53;5139228;28;20069;-63
2023/08/13 02:42:01;;;;;;;6.25;2.20;;;;;;;16.97;100.00;98135.41;5139228;28;20480;-62
2023/08/13 02:44:27;;;;;;;1.98;1.77;;;;;;;16.90;100.00;98130.06;5139482;28;20047;-62
2023/08/13 02:46:53;;;;;;;4.57;1.88;;;;;;;16.98;100.00;98130.66;5139468;28;20055;-60
2023/08/13 02:49:19;;;;;;;4.60;1.33;;;;;;;16.88;100.00;98124.94;5139283;28;20409;-60
2023/08/13 02:51:45;;;;;;;6.07;2.13;;;;;;;16.68;100.00;98126.97;5139436;28;20374;-60
2023/08/13 02:54:11;;;;;;;4.78;2.15;;;;;;;16.83;100.00;98131.00;5139087;28;20055;-61
2023/08/13 02:56:38;;;;;;;10.80;1.98;;;;;;;16.65;100.00;98127.84;5139252;28;20043;-62
2023/08/13 02:59:04;;;;;;;4.72;2.42;;;;;;;16.83;100.00;98135.78;5138921;28;20043;-60
2023/08/13 03:01:30;;;;;;;7.15;1.73;;;;;;;16.77;100.00;98132.72;5139285;28;20402;-62
2023/08/13 03:03:58;;;;;;;7.10;2.00;;;;;;;16.77;100.00;98140.25;5138687;28;20047;-62
2023/08/13 03:06:25;;;;;;;6.78;2.03;;;;;;;16.50;100.00;98138.47;5139323;28;20060;-63
2023/08/13 03:08:51;;;;;;;9.93;2.05;;;;;;;16.59;100.00;98152.47;5138614;27;20382;-61
2023/08/13 03:11:17;;;;;;;2.67;1.90;;;;;;;16.65;100.00;98155.50;5138708;28;20396;-60
2023/08/13 03:13:44;;;;;;;1.77;1.50;;;;;;;16.73;100.00;98154.16;5139021;28;20047;-62
2023/08/13 03:16:10;;;;;;;5.78;2.50;;;;;;;16.70;100.00;98152.25;5138967;28;20047;-62
2023/08/13 03:18:36;;;;;;;5.65;2.10;;;;;;;16.69;100.00;98190.22;5138972;28;20155;-60
2023/08/13 03:21:02;;;;;;;5.45;1.92;;;;;;;16.79;100.00;98190.41;5138572;28;20153;-62
2023/08/13 03:23:32;;;;;;;6.07;2.25;;;;;;;16.94;100.00;98173.03;5138719;28;20043;-63
2023/08/13 03:25:58;;;;;;;10.23;2.53;;;;;;;16.71;100.00;98159.31;5138590;28;20055;-63
2023/08/13 03:28:24;;;;;;;7.95;2.22;;;;;;;16.82;100.00;98201.41;5138885;28;20374;-63
2023/08/13 03:30:50;;;;;;;6.75;2.58;;;;;;;17.02;100.00;98156.25;5138495;28;20057;-62
2023/08/13 03:33:15;;;;;;;9.63;2.55;;;;;;;17.52;100.00;98143.91;5138843;28;20046;-60
2023/08/13 03:35:42;;;;;;;10.38;2.45;;;;;;;18.26;100.00;98154.16;5138649;28;20115;-60
2023/08/13 03:38:08;;;;;;;3.63;1.50;;;;;;;18.68;100.00;98229.06;5138702;27;20100;-63
2023/08/13 03:40:38;;;;;;;9.57;1.83;;;;;;;18.74;100.00;98275.28;5138272;28;20082;-63
2023/08/13 03:43:04;;;;;;;3.10;1.73;;;;;;;18.58;100.00;98297.53;5137999;27;20047;-61
2023/08/13 03:45:30;;;;;;;6.95;2.17;;;;;;;18.34;100.00;98247.84;5138287;28;20396;-61
2023/08/13 03:47:56;;;;;;;8.55;2.03;;;;;;;18.21;100.00;98210.97;5138301;28;20059;-62
2023/08/13 03:50:21;;;;;;;6.13;2.70;;;;;;;18.10;100.00;98208.50;5138489;28;20092;-63
2023/08/13 03:52:47;;;;;;;5.10;2.28;;;;;;;18.10;100.00;98211.28;5138147;28;20051;-63
2023/08/13 03:55:14;;;;;;;6.13;1.75;;;;;;;18.07;100.00;98195.50;5138488;28;20138;-62
2023/08/13 03:57:40;;;;;;;5.55;2.30;;;;;;;17.95;100.00;98171.28;5137944;28;20054;-61
2023/08/13 04:00:07;;;;;;;5.07;1.90;;;;;;;17.91;100.00;98167.84;5138337;28;20138;-60
2023/08/13 04:02:33;;;;;;;5.70;1.92;;;;;;;18.02;100.00;98167.53;5138016;28;20061;-62
2023/08/13 04:04:59;;;;;;;3.47;1.80;;;;;;;17.98;100.00;98175.19;5138388;28;20048;-63
2023/08/13 04:07:25;;;;;;;4.43;2.33;;;;;;;18.07;100.00;98175.31;5137712;27;20341;-60
2023/08/13 04:09:51;;;;;;;6.65;1.73;;;;;;;17.62;100.00;98176.09;5138287;28;20054;-60
2023/08/13 04:12:17;;;;;;;3.28;1.80;;;;;;;18.22;100.00;98176.47;5138003;28;20137;-60
2023/08/13 04:14:43;;;;;;;5.35;2.13;;;;;;;18.55;100.00;98193.72;5137917;28;20324;-61
2023/08/13 04:17:09;;;;;;;5.55;2.38;;;;;;;18.47;100.00;98209.03;5137863;28;20547;-60
2023/08/13 04:19:35;;;;;;;7.13;2.50;;;;;;;18.54;100.00;98214.38;5137768;28;20078;-60
2023/08/13 04:22:01;;;;;;;4.70;2.15;;;;;;;18.48;100.00;98202.28;5137724;28;20143;-60
2023/08/13 04:24:27;;;;;;;3.38;1.83;;;;;;;18.42;100.00;98206.81;5137548;28;20408;-61
2023/08/13 04:26:53;;;;;;;4.93;2.45;;;;;;;18.33;100.00;98201.16;5137995;28;20130;-63
2023/08/13 04:29:19;;;;;;;10.55;2.20;;;;;;;18.22;100.00;98175.69;5137486;28;20051;-62
2023/08/13 04:31:45;;;;;;;2.97;1.92;;;;;;;18.17;100.00;98179.78;5138192;28;20142;-61
2023/08/13 04:34:11;;;;;;;4.82;1.85;;;;;;;18.28;100.00;98180.25;5137454;28;20065;-62
2023/08/13 04:36:37;;;;;;;7.82;2.05;;;;;;;18.32;100.00;98174.59;5137874;28;20379;-61
2023/08/13 04:39:04;;;;;;;5.13;2.00;;;;;;;18.37;100.00;98181.63;5137315;27;20375;-60
2023/08/13 04:41:30;;;;;;;8.75;2.25;;;;;;;18.42;100.00;98175.50;5137557;28;20389;-63
2023/08/13 04:43:55;;;;;;;4.97;2.10;;;;;;;18.37;100.00;98184.38;5137321;28;20047;-62
2023/08/13 04:46:21;;;;;;;6.25;1.92;;;;;;;18.43;100.00;98166.75;5137415;28;20137;-61
2023/08/13 04:48:48;;;;;;;5.90;2.20;;;;;;;18.54;100.00;98203.28;5137484;28;20051;-60
2023/08/13 04:51:15;;;;;;;9.32;2.20;;;;;;;18.62;100.00;98164.19;5137072;28;20143;-63
2023/08/13 04:53:41;;;;;;;4.18;1.60;;;;;;;19.80;100.00;98266.06;5136826;27;20051;-61
2023/08/13 04:56:07;;;;;;;2.65;2.00;;;;;;;20.76;100.00;98476.34;5136999;28;20134;-61
2023/08/13 04:58:33;;;;;;;4.05;2.30;;;;;;;21.96;100.00;98626.63;5137597;28;20141;-64
2023/08/13 05:00:59;;;;;;;5.35;2.58;;;;;;;22.60;100.00;98718.41;5137143;28;20382;-62
2023/08/13 05:03:25;;;;;;;11.50;2.60;;;;;;;23.07;100.00;98758.56;5137543;28;20051;-62
2023/08/13 05:05:52;;;;;;;2.58;2.13;;;;;;;23.35;100.00;98790.97;5136885;28;20055;-61
2023/08/13 05:08:18;;;;;;;4.50;2.00;;;;;;;24.08;100.00;98831.59;5137204;27;20185;-62
2023/08/13 05:10:45;;;;;;;6.15;1.95;;;;;;;24.15;100.00;98834.09;5137257;28;20229;-63
2023/08/13 05:13:11;;;;;;;4.68;2.58;;;;;;;24.88;100.00;98844.53;5137116;28;20047;-63
2023/08/13 05:15:37;;;;;;;6.15;1.77;;;;;;;25.26;100.00;98862.84;5137200;28;20321;-64
2023/08/13 05:18:03;;;;;;;4.55;2.03;;;;;;;25.58;100.00;98864.13;5136812;28;20054;-64
2023/08/13 05:20:29;;;;;;;1.77;1.67;;;;;;;25.69;100.00;98878.44;5137080;28;20043;-61
2023/08/13 05:22:56;;;;;;;2.38;1.85;;;;;;;25.64;100.00;98878.28;5136956;28;20062;-64
2023/08/13 05:25:22;;;;;;;5.47;1.50;;;;;;;25.80;100.00;98878.72;5137127;28;20058;-64
2023/08/13 05:27:48;;;;;;;6.40;2.08;;;;;;;25.95;100.00;98892.81;5136729;28;20051;-63
2023/08/13 05:30:13;;;;;;;4.38;1.38;;;;;;;26.18;100.00;98901.75;5137165;28;20051;-62
2023/08/13 05:32:39;;;;;;;3.22;1.60;;;;;;;26.33;99.95;98908.22;5136744;28;20051;-61
2023/08/13 05:35:06;;;;;;;4.72;1.67;;;;;;;25.95;100.00;98901.25;5137022;28;20312;-61
2023/08/13 05:37:32;;;;;;;3.97;2.20;;;;;;;25.98;100.00;98899.53;5136829;27;20123;-63
2023/08/13 05:39:59;;;;;;;5.20;2.45;;;;;;;26.46;100.00;98902.34;5137072;28;20298;-64
2023/08/13 05:42:25;;;;;;;4.88;2.20;;;;;;;26.81;97.45;98913.00;5136846;28;20224;-64
2023/08/13 05:45:11;;;;;;;9.32;2.42;;;;;;;27.11;94.33;98908.19;5136490;28;20105;-61
2023/08/13 05:47:37;;;;;;;9.27;2.30;;;;;;;27.05;98.99;98907.31;5136933;28;20058;-64
2023/08/13 05:50:03;;;;;;;8.25;2.17;;;;;;;27.29;97.43;98908.06;5136364;28;20408;-62
2023/08/13 05:52:29;;;;;;;6.10;2.35;;;;;;;27.40;98.87;98907.47;5136705;28;20134;-64
2023/08/13 05:54:55;;;;;;;3.03;1.98;;;;;;;27.86;95.49;98913.34;5136494;28;20428;-61
2023/08/13 05:57:22;;;;;;;5.68;2.28;;;;;;;28.14;93.70;98916.53;5136699;28;20043;-61
2023/08/13 05:59:48;;;;;;;8.15;2.35;;;;;;;28.40;90.63;98924.34;5135986;28;20047;-61
2023/08/13 06:02:14;;;;;;;4.82;2.22;;;;;;;28.68;88.05;98923.91;5136118;28;20443;-62
2023/08/13 06:04:40;;;;;;;4.85;2.13;;;;;;;28.55;87.01;98921.44;5136410;28;20062;-63
2023/08/13 06:07:06;;;;;;;5.93;2.33;;;;;;;28.80;85.61;98922.78;5139710;28;20070;-64
2023/08/13 06:09:32;;;;;;;5.22;1.92;;;;;;;28.69;89.18;98925.47;5139771;27;20084;-63
2023/08/13 06:11:58;;;;;;;6.30;2.10;;;;;;;28.86;86.47;98923.63;5139696;28;20072;-64
2023/08/13 06:14:24;;;;;;;8.35;2.40;;;;;;;29.07;84.26;98927.19;5139972;28;20321;-63
2023/08/13 06:16:50;;;;;;;7.97;2.20;;;;;;;29.17;79.29;98925.00;5139652;28;20138;-64
2023/08/13 06:19:16;;;;;;;6.00;2.33;;;;;;;29.68;79.09;98932.63;5139938;28;20055;-62
2023/08/13 06:21:42;;;;;;;4.50;2.28;;;;;;;29.73;76.46;98934.75;5139499;28;20142;-59
2023/08/13 06:24:08;;;;;;;3.60;2.40;;;;;;;29.95;75.81;98927.69;5139786;28;20314;-59
2023/08/13 06:26:34;;;;;;;3.97;2.00;;;;;;;29.90;76.05;98937.69;5139486;28;20043;-60
2023/08/13 06:29:00;;;;;;;3.13;2.25;;;;;;;29.57;77.99;98923.28;5139923;28;20099;-61
2023/08/13 06:31:27;;;;;;;7.50;2.28;;;;;;;30.07;73.68;98932.16;5139263;28;20043;-60
2023/08/13 06:33:53;;;;;;;9.13;1.90;;;;;;;29.68;75.93;98931.88;5139490;28;20059;-62
2023/08/13 06:36:18;;;;;;;5.57;2.10;;;;;;;30.35;72.05;98937.19;5139497;28;20115;-60
2023/08/13 06:38:44;;;;;;;4.68;1.95;;;;;;;30.40;71.72;98934.41;5139039;27;20047;-61
2023/08/13 06:41:10;;;;;;;4.15;2.17;;;;;;;30.16;71.88;98936.84;5139502;28;20138;-60
2023/08/13 06:43:36;;;;;;;4.50;2.00;;;;;;;29.51;72.43;98926.81;5139196;28;20057;-61
2023/08/13 06:46:03;;;;;;;5.85;2.15;;;;;;;30.22;71.96;98937.66;5139230;28;20055;-64
2023/08/13 06:48:33;;;;;;;7.18;1.90;;;;;;;30.63;70.81;98935.28;5139019;28;20051;-61
2023/08/13 06:50:59;;;;;;;3.90;2.00;;;;;;;30.21;69.44;98939.69;5138935;28;20051;-60
2023/08/13 06:53:26;;;;;;;3.55;1.98;;;;;;;30.46;69.55;98942.94;5138962;28;20138;-60
2023/08/13 06:55:52;;;;;;;5.43;2.13;;;;;;;29.54;70.22;98942.78;5139422;28;20050;-61
2023/08/13 06:58:18;;;;;;;4.32;2.05;;;;;;;29.58;71.83;98939.72;5138840;28;20381;-62
2023/08/13 07:00:46;;;;;;;5.45;1.77;;;;;;;29.55;72.19;98941.50;5139037;28;20061;-62
2023/08/13 07:03:12;;;;;;;4.93;1.80;;;;;;;29.67;73.45;98936.75;5139037;28;20050;-62
2023/08/13 07:05:40;;;;;;;4.10;1.80;;;;;;;30.14;71.40;98940.16;5138973;28;20043;-62
2023/08/13 07:08:06;;;;;;;2.65;1.75;;;;;;;30.23;73.16;98937.16;5138991;27;20138;-60
2023/08/13 07:10:32;;;;;;;3.72;2.20;;;;;;;30.34;69.87;98946.97;5138695;28;20472;-64
2023/08/13 07:12:58;;;;;;;6.10;2.00;;;;;;;30.78;69.02;98945.66;5139010;28;20055;-60
2023/08/13 07:15:24;;;;;;;6.57;2.45;;;;;;;31.03;69.91;98941.88;5138616;28;20055;-62
2023/08/13 07:17:50;;;;;;;4.75;1.90;;;;;;;31.35;69.44;98948.09;5138218;27;20142;-63
2023/08/13 07:20:16;;;;;;;9.95;2.50;;;;;;;31.17;68.78;98940.09;5138292;28;20137;-60
2023/08/13 07:22:44;;;;;;;3.63;1.88;;;;;;;30.05;69.34;98936.75;5138783;28;20089;-61
2023/08/13 07:25:11;;;;;;;4.13;2.13;;;;;;;30.65;71.29;98937.59;5138103;28;20053;-60
2023/08/13 07:27:39;;;;;;;2.78;1.80;;;;;;;31.26;68.48;98947.56;5138719;28;20141;-64
2023/08/13 07:30:07;;;;;;;4.78;2.20;;;;;;;31.46;68.40;98944.53;5138214;28;20054;-61
2023/08/13 07:32:35;;;;;;;5.68;2.15;;;;;;;31.30;69.17;98948.09;5138580;28;20051;-63
2023/08/13 07:35:01;;;;;;;3.30;2.00;;;;;;;30.53;67.53;98950.94;5138741;28;20055;-62
2023/08/13 07:37:27;;;;;;;4.82;2.13;;;;;;;31.12;66.00;98947.31;5138398;27;20047;-63
2023/08/13 07:39:53;;;;;;;3.00;2.00;;;;;;;31.48;66.20;98956.09;5138612;28;20071;-60
2023/08/13 07:42:19;;;;;;;3.67;1.60;;;;;;;31.53;65.43;98946.84;5138362;28;20331;-59
2023/08/13 07:44:47;;;;;;;5.05;2.10;;;;;;;31.29;67.93;98955.81;5138771;28;20078;-59
2023/08/13 07:47:13;;;;;;;8.52;2.28;;;;;;;31.74;64.19;98955.09;5138140;28;20336;-63
2023/08/13 07:49:39;;;;;;;3.10;2.10;;;;;;;31.96;63.71;98955.09;5138601;28;20133;-62
2023/08/13 07:52:05;;;;;;;3.30;1.98;;;;;;;31.24;68.50;98956.56;5138005;28;20047;-61
2023/08/13 07:54:31;;;;;;;7.22;2.30;;;;;;;31.65;64.43;98964.63;5138520;28;20069;-61
2023/08/13 07:56:58;;;;;;;3.55;1.90;;;;;;;31.72;63.46;98952.75;5137791;28;20051;-62
2023/08/13 07:59:24;;;;;;;2.72;1.67;;;;;;;32.35;62.41;98960.66;5138182;28;20069;-61
2023/08/13 08:01:50;;;;;;;4.35;1.90;;;;;;;32.19;62.16;98953.00;5138200;28;20051;-62
2023/08/13 08:04:15;;;;;;;6.13;1.83;;;;;;;31.86;62.10;98962.31;5137728;28;20050;-64
2023/08/13 08:06:41;;;;;;;4.07;1.90;;;;;;;31.70;62.98;98966.69;5138139;28;20149;-63
2023/08/13 08:09:07;;;;;;;5.68;3.08;;;;;;;31.81;64.04;98961.00;5137918;27;20134;-62
2023/08/13 08:11:33;;;;;;;5.40;2.08;;;;;;;31.72;62.56;98966.94;5138290;28;20047;-61
2023/08/13 08:14:00;;;;;;;6.80;2.17;;;;;;;31.47;61.31;98967.97;5137932;28;20047;-60
2023/08/13 08:16:26;;;;;;;3.63;1.90;;;;;;;31.25;63.50;98954.50;5138009;28;20058;-60
2023/08/13 08:18:52;;;;;;;3.03;1.80;;;;;;;31.11;61.20;98950.63;5137727;28;20047;-60
2023/08/13 08:21:17;;;;;;;3.60;1.77;;;;;;;31.09;59.91;98956.00;5137982;28;20138;-61
2023/08/13 08:23:43;;;;;;;6.53;1.88;;;;;;;31.32;60.34;98959.66;5137626;28;20066;-61
2023/08/13 08:26:09;;;;;;;2.83;2.15;;;;;;;31.68;61.82;98968.47;5137815;28;20062;-62
2023/08/13 08:28:35;;;;;;;4.82;2.10;;;;;;;31.46;60.09;98966.41;5136878;27;20047;-63
2023/08/13 08:31:02;;;;;;;6.22;2.00;;;;;;;30.52;63.76;98962.75;5137184;28;20404;-63
2023/08/13 08:33:28;;;;;;;5.65;1.70;;;;;;;30.45;64.93;98958.34;5137526;28;20054;-62
2023/08/13 08:35:53;;;;;;;4.75;2.25;;;;;;;30.25;66.17;98950.78;5137478;28;20059;-62
2023/08/13 08:38:19;;;;;;;4.65;1.95;;;;;;;31.02;66.37;98953.69;5137619;27;20089;-63
2023/08/13 08:40:47;;;;;;;4.95;2.28;;;;;;;30.68;63.03;98957.16;5137178;28;20484;-62
2023/08/13 08:43:13;;;;;;;5.03;2.13;;;;;;;31.07;62.53;98959.38;5137719;28;20336;-59
2023/08/13 08:45:40;;;;;;;5.43;2.00;;;;;;;31.69;62.33;98967.97;5137245;28;20077;-61
2023/08/13 08:48:07;;;;;;;5.47;2.25;;;;;;;31.82;64.45;98950.44;5137577;28;20397;-62
2023/08/13 08:50:35;;;;;;;5.55;1.90;;;;;;;32.29;63.49;98961.97;5137061;28;20134;-60
2023/08/13 08:53:01;;;;;;;3.63;2.13;;;;;;;31.81;61.61;98963.84;5137556;28;20061;-60
2023/08/13 08:55:27;;;;;;;5.88;1.88;;;;;;;31.03;63.01;98960.91;5137090;28;20054;-61
2023/08/13 08:57:54;;;;;;;7.40;2.55;;;;;;;31.26;65.33;98954.00;5137317;28;20047;-63
2023/08/13 09:00:20;;;;;;;5.38;2.22;;;;;;;31.44;62.94;98955.59;5137429;28;20058;-61
2023/08/13 09:02:46;;;;;;;5.90;2.30;;;;;;;31.71;65.73;98951.22;5136936;28;20134;-63
2023/08/13 09:05:13;;;;;;;4.82;2.20;;;;;;;31.95;65.82;98962.03;5137120;28;20142;-59
2023/08/13 09:07:42;;;;;;;6.20;1.70;;;;;;;31.67;61.33;98947.09;5137120;27;20147;-61
2023/08/13 09:10:09;;;;;;;3.83;2.10;;;;;;;31.20;61.79;98943.97;5137395;28;20047;-61
2023/08/13 09:12:35;;;;;;;5.10;1.90;;;;;;;31.29;61.47;98952.19;5137076;28;20047;-62
2023/08/13 09:15:03;;;;;;;3.67;1.90;;;;;;;31.98;63.43;98952.50;5137305;28;20112;-61
2023/08/13 09:17:30;;;;;;;6.30;2.10;;;;;;;32.07;63.27;98951.47;5136924;28;20047;-61
2023/08/13 09:19:56;;;;;;;5.25;1.88;;;;;;;31.01;63.15;98946.47;5137198;28;20051;-61
2023/08/13 09:22:23;;;;;;;8.00;2.13;;;;;;;30.51;68.25;98941.41;5136669;28;20047;-63
2023/08/13 09:24:49;;;;;;;4.78;1.98;;;;;;;31.34;65.99;98943.75;5136655;28;20137;-63
2023/08/13 09:27:15;;;;;;;3.22;2.13;;;;;;;31.81;63.19;98961.00;5137069;28;20047;-61
2023/08/13 09:29:41;;;;;;;6.35;2.28;;;;;;;31.75;62.98;98950.97;5136895;28;20051;-60
2023/08/13 09:32:07;;;;;;;6.05;2.20;;;;;;;31.76;63.20;98946.84;5136854;28;20057;-60
2023/08/13 09:34:34;;;;;;;5.40;1.90;;;;;;;31.81;64.06;98955.34;5136654;28;20142;-60
2023/08/13 09:37:00;;;;;;;4.57;2.08;;;;;;;31.43;64.98;98945.56;5136788;28;20330;-63
2023/08/13 09:39:27;;;;;;;4.88;2.10;;;;;;;31.46;64.57;98955.88;5136547;27;20081;-60
2023/08/13 09:41:54;;;;;;;4.47;2.13;;;;;;;31.06;70.42;98940.84;5140061;28;20138;-63
2023/08/13 09:44:24;;;;;;;4.72;2.47;;;;;;;31.50;65.88;98953.53;5140135;28;20138;-60
2023/08/13 09:46:53;;;;;;;4.45;2.20;;;;;;;31.83;65.89;98947.09;5140538;28;20050;-60
2023/08/13 09:49:21;;;;;;;2.17;1.83;;;;;;;31.42;65.30;98949.66;5139987;28;20058;-60
2023/08/13 09:51:48;;;;;;;5.45;2.17;;;;;;;31.49;65.04;98956.88;5139985;28;20133;-62
2023/08/13 09:54:24;;;;;;;5.18;1.60;;;;;;;31.43;61.76;98961.78;5140291;28;20124;-61
2023/08/13 09:56:57;;;;;;;3.92;2.25;;;;;;;30.74;66.49;98943.03;5140141;28;20057;-63
2023/08/13 09:59:25;;;;;;;3.58;1.77;;;;;;;30.59;67.69;98948.91;5140112;28;20047;-60
2023/08/13 10:01:52;;;;;;;3.40;1.92;;;;;;;31.07;66.32;98953.72;5139938;28;20138;-61
2023/08/13 10:04:19;;;;;;;6.32;2.00;;;;;;;31.30;69.94;98951.69;5140041;28;20047;-63
2023/08/13 10:06:46;;;;;;;6.10;2.30;;;;;;;31.40;70.87;98953.03;5139939;28;20400;-62
2023/08/13 10:09:13;;;;;;;6.90;2.00;;;;;;;31.63;68.30;98967.19;5140057;27;20078;-59
2023/08/13 10:11:39;;;;;;;5.72;2.00;;;;;;;31.53;69.92;98966.69;5139869;28;20417;-63
2023/08/13 10:14:05;;;;;;;5.43;2.05;;;;;;;31.40;66.26;98966.41;5140238;28;20092;-63
2023/08/13 10:16:32;;;;;;;6.20;2.17;;;;;;;31.56;68.35;98959.22;5139110;28;20142;-63
2023/08/13 10:19:01;;;;;;;5.20;1.70;;;;;;;31.13;67.51;98957.34;5139683;28;20436;-60
2023/08/13 10:21:33;;;;;;;6.90;2.25;;;;;;;30.83;69.24;98959.81;5140058;28;20083;-61
2023/08/13 10:24:00;;;;;;;6.82;2.03;;;;;;;30.12;76.38;98956.06;5139567;28;20047;-61
2023/08/13 10:26:26;;;;;;;3.90;2.08;;;;;;;29.29;81.71;98952.03;5139854;28;20393;-63
2023/08/13 10:28:53;;;;;;;6.97;1.90;;;;;;;29.28;80.95;98948.44;5139455;28;20143;-62
2023/08/13 10:31:32;;;;;;;7.20;2.30;;;;;;;29.40;83.49;98945.75;5139341;28;20108;-60
2023/08/13 10:34:10;;;;;;;5.50;1.70;;;;;;;29.99;77.59;98945.19;5139255;28;20566;-63
2023/08/13 10:36:44;;;;;;;10.45;2.17;;;;;;;30.23;74.57;98947.69;5139831;28;20544;-62
2023/08/13 10:39:33;;;;;;;3.75;1.38;;;;;;;30.56;68.85;98955.56;5139534;27;20055;-61
2023/08/13 10:41:59;;;;;;;6.43;2.00;;;;;;;30.51;70.47;98961.97;5139394;28;20047;-62
2023/08/13 10:44:28;;;;;;;4.78;1.85;;;;;;;30.78;69.53;98959.78;5139399;28;20141;-63
2023/08/13 10:46:55;;;;;;;6.03;1.92;;;;;;;30.72;68.58;98956.91;5139354;28;20051;-61
2023/08/13 10:49:21;;;;;;;4.25;1.63;;;;;;;30.51;72.27;98961.19;5139620;28;20043;-60
2023/08/13 10:51:48;;;;;;;7.78;2.10;;;;;;;30.80;70.31;98960.06;5138025;27;20135;-61
2023/08/13 10:54:14;;;;;;;5.30;1.48;;;;;;;30.54;69.20;98954.53;5139477;28;20328;-60
2023/08/13 10:56:42;;;;;;;6.13;2.10;;;;;;;30.75;73.59;98963.59;5139209;28;20138;-61
2023/08/13 10:59:08;;;;;;;6.18;2.00;;;;;;;29.67;75.94;98947.28;5139511;28;20078;-63
2023/08/13 11:01:34;;;;;;;6.53;1.65;;;;;;;30.38;71.93;98953.16;5138925;28;20094;-60
2023/08/13 11:04:03;;;;;;;4.57;1.85;;;;;;;30.03;73.06;98951.41;5139168;28;20195;-59
2023/08/13 11:06:29;;;;;;;4.72;2.00;;;;;;;29.10;79.75;98943.13;5138901;28;20096;-60
2023/08/13 11:08:56;;;;;;;5.63;1.92;;;;;;;29.75;74.68;98946.31;5138893;27;20110;-61
2023/08/13 11:11:22;;;;;;;4.22;1.60;;;;;;;28.91;76.48;98948.28;5138946;28;20436;-62
2023/08/13 11:13:49;;;;;;;5.95;1.50;;;;;;;28.94;81.08;98938.84;5138775;28;20055;-61
2023/08/13 11:16:15;;;;;;;6.53;1.88;;;;;;;28.51;81.77;98932.16;5139081;28;20059;-61
2023/08/13 11:18:42;;;;;;;5.57;1.60;;;;;;;28.30;83.57;98943.41;5138740;28;20134;-61
2023/08/13 11:21:08;;;;;;;5.07;1.60;;;;;;;28.09;81.15;98941.81;5138988;28;20047;-63
2023/08/13 11:23:34;;;;;;;5.35;1.42;;;;;;;27.90;81.10;98944.91;5138573;28;20051;-62
2023/08/13 11:26:03;;;;;;;1.67;1.48;;;;;;;27.76;80.13;98944.88;5139170;28;20058;-63